sensor_id;sensor_type;location;lat;lon;timestamp;pressure;altitude;pressure_sealevel;temperature;humidity
21879;BME280;27908;42.708;23.278;2023-08-06T00:01:48;50015.38;;;-136.69;99.45
21879;BME280;27908;42.708;23.278;2023-08-06T00:04:13;50003.56;;;-136.69;99.25
21879;BME280;27908;42.708;23.278;2023-08-06T00:06:39;50011.44;;;-136.69;97.57
21879;BME280;27908;42.708;23.278;2023-08-06T00:09:05;50001.59;;;-136.69;97.82
21879;BME280;27908;42.708;23.278;2023-08-06T00:11:30;49970.09;;;-136.69;98.95
21879;BME280;27908;42.708;23.278;2023-08-06T00:13:56;49995.69;;;-136.69;98.99
21879;BME280;27908;42.708;23.278;2023-08-06T00:16:21;50015.38;;;-136.69;98.77
21879;BME280;27908;42.708;23.278;2023-08-06T00:18:47;49981.91;;;-136.69;97.78
21879;BME280;27908;42.708;23.278;2023-08-06T00:21:12;49964.19;;;-136.69;96.53
21879;BME280;27908;42.708;23.278;2023-08-06T00:23:39;49999.63;;;-136.69;94.76
21879;BME280;27908;42.708;23.278;2023-08-06T00:26:04;49972.06;;;-136.69;95.51
21879;BME280;27908;42.708;23.278;2023-08-06T00:28:29;49985.84;;;-136.69;96.06
21879;BME280;27908;42.708;23.278;2023-08-06T00:30:55;49977.97;;;-136.69;95.70
21879;BME280;27908;42.708;23.278;2023-08-06T00:33:22;49958.28;;;-136.69;95.66
21879;BME280;27908;42.708;23.278;2023-08-06T00:35:47;49985.84;;;-136.69;94.52
21879;BME280;27908;42.708;23.278;2023-08-06T00:38:13;50027.19;;;-136.69;93.60
21879;BME280;27908;42.708;23.278;2023-08-06T00:40:39;49985.84;;;-136.69;93.75
21879;BME280;27908;42.708;23.278;2023-08-06T00:43:04;50029.16;;;-136.69;94.09
21879;BME280;27908;42.708;23.278;2023-08-06T00:45:30;49989.78;;;-136.69;93.85
21879;BME280;27908;42.708;23.278;2023-08-06T00:47:56;49977.97;;;-136.69;93.85
21879;BME280;27908;42.708;23.278;2023-08-06T00:50:21;50029.16;;;-136.69;94.11
21879;BME280;27908;42.708;23.278;2023-08-06T00:52:48;50003.56;;;-136.69;94.24
21879;BME280;27908;42.708;23.278;2023-08-06T00:55:15;49997.66;;;-136.69;93.34
21879;BME280;27908;42.708;23.278;2023-08-06T00:57:40;49997.66;;;-136.69;92.86
21879;BME280;27908;42.708;23.278;2023-08-06T01:00:07;50005.53;;;-136.69;92.20
21879;BME280;27908;42.708;23.278;2023-08-06T01:02:32;49993.72;;;-136.69;91.96
21879;BME280;27908;42.708;23.278;2023-08-06T01:04:58;50005.53;;;-136.69;92.81
21879;BME280;27908;42.708;23.278;2023-08-06T01:07:33;50033.09;;;-136.69;92.61
21879;BME280;27908;42.708;23.278;2023-08-06T01:15:47;49999.63;;;-136.69;93.29
21879;BME280;27908;42.708;23.278;2023-08-06T01:18:14;50001.59;;;-136.69;94.07
21879;BME280;27908;42.708;23.278;2023-08-06T01:20:40;49960.25;;;-136.69;94.50
21879;BME280;27908;42.708;23.278;2023-08-06T01:23:06;50009.47;;;-136.69;95.37
21879;BME280;27908;42.708;23.278;2023-08-06T01:28:36;50013.41;;;-136.69;95.93
21879;BME280;27908;42.708;23.278;2023-08-06T01:31:07;50011.44;;;-136.69;94.81
21879;BME280;27908;42.708;23.278;2023-08-06T01:33:38;49995.69;;;-136.69;93.81
21879;BME280;27908;42.708;23.278;2023-08-06T01:36:08;50015.38;;;-136.69;93.85
21879;BME280;27908;42.708;23.278;2023-08-06T01:38:34;49997.66;;;-136.69;93.75
21879;BME280;27908;42.708;23.278;2023-08-06T01:40:59;49972.06;;;-136.69;93.19
21879;BME280;27908;42.708;23.278;2023-08-06T01:43:25;49987.81;;;-136.69;92.93
21879;BME280;27908;42.708;23.278;2023-08-06T01:45:50;50007.50;;;-136.69;93.02
21879;BME280;27908;42.708;23.278;2023-08-06T01:48:16;50009.47;;;-136.69;93.07
21879;BME280;27908;42.708;23.278;2023-08-06T01:50:41;50027.19;;;-136.69;93.37
21879;BME280;27908;42.708;23.278;2023-08-06T01:53:06;49997.66;;;-136.69;93.81
21879;BME280;27908;42.708;23.278;2023-08-06T01:55:32;49987.81;;;-136.69;93.86
21879;BME280;27908;42.708;23.278;2023-08-06T01:57:57;49983.88;;;-136.69;94.73
21879;BME280;27908;42.708;23.278;2023-08-06T02:00:23;49954.34;;;-136.69;95.02
21879;BME280;27908;42.708;23.278;2023-08-06T02:02:48;50001.59;;;-136.69;95.54
21879;BME280;27908;42.708;23.278;2023-08-06T02:05:13;49976.00;;;-136.69;95.49
21879;BME280;27908;42.708;23.278;2023-08-06T02:07:39;49985.84;;;-136.69;94.96
21879;BME280;27908;42.708;23.278;2023-08-06T02:10:05;49983.88;;;-136.69;95.74
21879;BME280;27908;42.708;23.278;2023-08-06T02:12:30;49950.41;;;-136.69;96.72
21879;BME280;27908;42.708;23.278;2023-08-06T02:14:56;49989.78;;;-136.69;96.79
21879;BME280;27908;42.708;23.278;2023-08-06T02:17:21;49995.69;;;-136.69;97.70
21879;BME280;27908;42.708;23.278;2023-08-06T02:19:46;49985.84;;;-136.69;98.34
21879;BME280;27908;42.708;23.278;2023-08-06T02:22:12;49999.63;;;-136.69;97.69
21879;BME280;27908;42.708;23.278;2023-08-06T02:24:37;50009.47;;;-136.69;97.78
21879;BME280;27908;42.708;23.278;2023-08-06T02:27:03;49979.94;;;-136.69;97.98
21879;BME280;27908;42.708;23.278;2023-08-06T02:29:28;50005.53;;;-136.69;98.00
21879;BME280;27908;42.708;23.278;2023-08-06T02:31:54;50011.44;;;-136.69;97.71
21879;BME280;27908;42.708;23.278;2023-08-06T02:34:19;49997.66;;;-136.69;98.24
21879;BME280;27908;42.708;23.278;2023-08-06T02:36:45;50023.25;;;-136.69;99.39
21879;BME280;27908;42.708;23.278;2023-08-06T02:39:10;49997.66;;;-136.69;99.38
21879;BME280;27908;42.708;23.278;2023-08-06T02:41:35;50027.19;;;-136.69;97.74
21879;BME280;27908;42.708;23.278;2023-08-06T02:44:01;50013.41;;;-136.69;97.46
21879;BME280;27908;42.708;23.278;2023-08-06T02:46:26;49981.91;;;-136.69;97.22
21879;BME280;27908;42.708;23.278;2023-08-06T02:48:52;50005.53;;;-136.69;97.47
21879;BME280;27908;42.708;23.278;2023-08-06T02:51:17;50027.19;;;-136.69;98.31
21879;BME280;27908;42.708;23.278;2023-08-06T02:53:42;50040.97;;;-136.69;98.72
21879;BME280;27908;42.708;23.278;2023-08-06T02:56:08;49981.91;;;-136.69;97.66
21879;BME280;27908;42.708;23.278;2023-08-06T02:58:33;50015.38;;;-136.69;97.51
21879;BME280;27908;42.708;23.278;2023-08-06T03:01:00;50040.97;;;-136.69;97.10
21879;BME280;27908;42.708;23.278;2023-08-06T03:03:26;50062.63;;;-136.69;97.48
21879;BME280;27908;42.708;23.278;2023-08-06T03:05:53;50005.53;;;-136.69;98.24
21879;BME280;27908;42.708;23.278;2023-08-06T03:08:18;49985.84;;;-136.69;98.00
21879;BME280;27908;42.708;23.278;2023-08-06T03:10:48;50027.19;;;-136.69;97.63
21879;BME280;27908;42.708;23.278;2023-08-06T03:13:13;50021.28;;;-136.69;97.80
21879;BME280;27908;42.708;23.278;2023-08-06T03:15:38;50013.41;;;-136.69;99.42
21879;BME280;27908;42.708;23.278;2023-08-06T03:18:04;50025.22;;;-136.69;99.46
21879;BME280;27908;42.708;23.278;2023-08-06T03:20:32;50011.44;;;-136.69;99.77
21879;BME280;27908;42.708;23.278;2023-08-06T03:22:57;50025.22;;;-136.69;99.19
21879;BME280;27908;42.708;23.278;2023-08-06T03:25:23;50019.31;;;-136.69;100.00
21879;BME280;27908;42.708;23.278;2023-08-06T03:27:48;50011.44;;;-136.69;99.20
21879;BME280;27908;42.708;23.278;2023-08-06T03:30:14;50015.38;;;-136.69;99.38
21879;BME280;27908;42.708;23.278;2023-08-06T03:32:39;50042.94;;;-136.69;99.37
21879;BME280;27908;42.708;23.278;2023-08-06T03:35:05;50033.09;;;-136.69;99.70
21879;BME280;27908;42.708;23.278;2023-08-06T03:37:31;50029.16;;;-136.69;99.65
21879;BME280;27908;42.708;23.278;2023-08-06T03:39:56;50027.19;;;-136.69;99.18
21879;BME280;27908;42.708;23.278;2023-08-06T03:42:21;50066.56;;;-136.69;98.88
21879;BME280;27908;42.708;23.278;2023-08-06T03:44:47;50064.59;;;-136.69;98.38
21879;BME280;27908;42.708;23.278;2023-08-06T03:47:13;50080.34;;;-136.69;97.70
21879;BME280;27908;42.708;23.278;2023-08-06T03:49:38;50042.94;;;-136.69;97.15
21879;BME280;27908;42.708;23.278;2023-08-06T03:52:05;50100.03;;;-136.69;96.74
21879;BME280;27908;42.708;23.278;2023-08-06T03:54:30;50068.53;;;-136.69;96.24
21879;BME280;27908;42.708;23.278;2023-08-06T03:56:56;50021.28;;;-136.69;97.03
21879;BME280;27908;42.708;23.278;2023-08-06T03:59:21;50039.00;;;-136.69;97.20
21879;BME280;27908;42.708;23.278;2023-08-06T04:01:46;50125.66;;;-136.69;96.49
21879;BME280;27908;42.708;23.278;2023-08-06T04:04:12;50054.75;;;-136.69;96.17
21879;BME280;27908;42.708;23.278;2023-08-06T04:06:37;50027.19;;;-136.69;96.31
21879;BME280;27908;42.708;23.278;2023-08-06T04:09:03;50044.91;;;-136.69;96.25
21879;BME280;27908;42.708;23.278;2023-08-06T04:11:28;50088.22;;;-136.69;95.64
21879;BME280;27908;42.708;23.278;2023-08-06T04:13:54;50050.81;;;-136.69;95.73
21879;BME280;27908;42.708;23.278;2023-08-06T04:16:21;50033.09;;;-136.69;95.55
21879;BME280;27908;42.708;23.278;2023-08-06T04:18:46;50070.50;;;-136.69;94.45
21879;BME280;27908;42.708;23.278;2023-08-06T04:21:12;50042.94;;;-136.69;94.28
21879;BME280;27908;42.708;23.278;2023-08-06T04:23:37;50050.81;;;-136.69;93.70
21879;BME280;27908;42.708;23.278;2023-08-06T04:26:03;50046.88;;;-136.69;94.38
21879;BME280;27908;42.708;23.278;2023-08-06T04:28:28;50080.34;;;-136.69;95.11
21879;BME280;27908;42.708;23.278;2023-08-06T04:30:53;50076.41;;;-136.69;94.59
21879;BME280;27908;42.708;23.278;2023-08-06T04:33:20;50027.19;;;-136.69;95.25
21879;BME280;27908;42.708;23.278;2023-08-06T04:35:45;50056.72;;;-136.69;95.62
21879;BME280;27908;42.708;23.278;2023-08-06T04:38:10;50080.34;;;-136.69;95.39
21879;BME280;27908;42.708;23.278;2023-08-06T04:40:36;50060.66;;;-136.69;95.87
21879;BME280;27908;42.708;23.278;2023-08-06T04:43:02;50072.47;;;-136.69;96.32
21879;BME280;27908;42.708;23.278;2023-08-06T04:45:27;50076.41;;;-136.69;95.96
21879;BME280;27908;42.708;23.278;2023-08-06T04:47:53;50072.47;;;-136.69;96.24
21879;BME280;27908;42.708;23.278;2023-08-06T04:50:19;50044.91;;;-136.69;95.08
21879;BME280;27908;42.708;23.278;2023-08-06T04:52:45;50070.50;;;-136.69;94.98
21879;BME280;27908;42.708;23.278;2023-08-06T04:55:10;50064.59;;;-136.69;94.31
21879;BME280;27908;42.708;23.278;2023-08-06T04:57:36;50050.81;;;-136.69;95.35
21879;BME280;27908;42.708;23.278;2023-08-06T05:00:03;50050.81;;;-136.69;94.97
21879;BME280;27908;42.708;23.278;2023-08-06T05:02:29;50066.56;;;-136.69;95.47
21879;BME280;27908;42.708;23.278;2023-08-06T05:04:57;50072.47;;;-136.69;93.72
21879;BME280;27908;42.708;23.278;2023-08-06T05:07:23;50035.06;;;-136.69;95.02
21879;BME280;27908;42.708;23.278;2023-08-06T05:09:48;50074.44;;;-136.69;94.35
21879;BME280;27908;42.708;23.278;2023-08-06T05:12:14;50054.75;;;-136.69;94.41
21879;BME280;27908;42.708;23.278;2023-08-06T05:14:39;50080.34;;;-136.69;95.57
21879;BME280;27908;42.708;23.278;2023-08-06T05:17:04;50100.03;;;-136.69;95.77
21879;BME280;27908;42.708;23.278;2023-08-06T05:19:30;50078.38;;;-136.69;95.33
21879;BME280;27908;42.708;23.278;2023-08-06T05:21:55;50092.16;;;-136.69;95.94
21879;BME280;27908;42.708;23.278;2023-08-06T05:24:21;50094.13;;;-136.69;94.56
21879;BME280;27908;42.708;23.278;2023-08-06T05:26:46;50125.66;;;-136.69;95.52
21879;BME280;27908;42.708;23.278;2023-08-06T05:29:13;50105.94;;;-136.69;93.76
21879;BME280;27908;42.708;23.278;2023-08-06T05:31:38;50088.22;;;-136.69;92.79
21879;BME280;27908;42.708;23.278;2023-08-06T05:34:03;50139.44;;;-136.69;93.09
21879;BME280;27908;42.708;23.278;2023-08-06T05:36:29;50094.13;;;-136.69;94.41
21879;BME280;27908;42.708;23.278;2023-08-06T05:38:54;50135.50;;;-136.69;92.79
21879;BME280;27908;42.708;23.278;2023-08-06T05:41:20;50107.91;;;-136.69;91.76
21879;BME280;27908;42.708;23.278;2023-08-06T05:43:45;50115.81;;;-136.69;88.09
21879;BME280;27908;42.708;23.278;2023-08-06T05:46:11;50172.91;;;-136.69;84.34
21879;BME280;27908;42.708;23.278;2023-08-06T05:48:36;50131.56;;;-136.69;85.22
21879;BME280;27908;42.708;23.278;2023-08-06T05:51:02;50143.38;;;-136.69;85.65
21879;BME280;27908;42.708;23.278;2023-08-06T05:53:27;50172.91;;;-136.69;85.21
21879;BME280;27908;42.708;23.278;2023-08-06T05:55:52;50165.03;;;-136.69;83.56
21879;BME280;27908;42.708;23.278;2023-08-06T05:58:18;50153.22;;;-136.69;82.13
21879;BME280;27908;42.708;23.278;2023-08-06T06:00:45;50153.22;;;-136.69;79.60
21879;BME280;27908;42.708;23.278;2023-08-06T06:03:11;50206.38;;;-136.69;80.71
21879;BME280;27908;42.708;23.278;2023-08-06T06:05:39;50249.69;;;-136.69;81.71
21879;BME280;27908;42.708;23.278;2023-08-06T06:08:04;50204.41;;;-136.69;79.18
21879;BME280;27908;42.708;23.278;2023-08-06T06:10:30;50178.81;;;-136.69;73.70
21879;BME280;27908;42.708;23.278;2023-08-06T06:12:55;50206.38;;;-136.69;73.94
21879;BME280;27908;42.708;23.278;2023-08-06T06:15:21;50259.53;;;-136.69;73.90
21879;BME280;27908;42.708;23.278;2023-08-06T06:17:46;50251.66;;;-136.69;73.03
21879;BME280;27908;42.708;23.278;2023-08-06T06:20:12;50233.94;;;-136.69;71.50
21879;BME280;27908;42.708;23.278;2023-08-06T06:22:37;50275.28;;;-136.69;68.42
21879;BME280;27908;42.708;23.278;2023-08-06T06:25:03;50241.81;;;-136.69;73.13
21879;BME280;27908;42.708;23.278;2023-08-06T06:27:28;50233.94;;;-136.69;73.47
21879;BME280;27908;42.708;23.278;2023-08-06T06:29:54;50186.69;;;-136.69;76.43
21879;BME280;27908;42.708;23.278;2023-08-06T06:32:20;50198.50;;;-136.69;77.77
21879;BME280;27908;42.708;23.278;2023-08-06T06:34:46;50233.94;;;-136.69;77.71
21879;BME280;27908;42.708;23.278;2023-08-06T06:37:11;50218.19;;;-136.69;77.93
21879;BME280;27908;42.708;23.278;2023-08-06T06:39:36;50220.16;;;-136.69;74.66
21879;BME280;27908;42.708;23.278;2023-08-06T06:42:02;50208.34;;;-136.69;75.11
21879;BME280;27908;42.708;23.278;2023-08-06T06:44:27;50180.78;;;-136.69;75.08
21879;BME280;27908;42.708;23.278;2023-08-06T06:46:53;50206.38;;;-136.69;75.00
21879;BME280;27908;42.708;23.278;2023-08-06T06:49:18;50222.13;;;-136.69;73.98
21879;BME280;27908;42.708;23.278;2023-08-06T06:51:44;50194.56;;;-136.69;75.14
21879;BME280;27908;42.708;23.278;2023-08-06T06:54:09;50208.34;;;-136.69;72.97
21879;BME280;27908;42.708;23.278;2023-08-06T06:56:35;50196.53;;;-136.69;74.79
21879;BME280;27908;42.708;23.278;2023-08-06T06:59:00;50259.53;;;-136.69;75.64
21879;BME280;27908;42.708;23.278;2023-08-06T07:01:26;50188.66;;;-136.69;71.97
21879;BME280;27908;42.708;23.278;2023-08-06T07:03:51;50237.88;;;-136.69;70.34
21879;BME280;27908;42.708;23.278;2023-08-06T07:06:17;50233.94;;;-136.69;72.58
21879;BME280;27908;42.708;23.278;2023-08-06T07:08:44;50251.66;;;-136.69;66.32
21879;BME280;27908;42.708;23.278;2023-08-06T07:11:09;50267.41;;;-136.69;65.17
21879;BME280;27908;42.708;23.278;2023-08-06T07:13:35;50230.00;;;-136.69;65.19
21879;BME280;27908;42.708;23.278;2023-08-06T07:16:00;50226.06;;;-136.69;65.84
21879;BME280;27908;42.708;23.278;2023-08-06T07:18:26;50243.78;;;-136.69;66.62
21879;BME280;27908;42.708;23.278;2023-08-06T07:20:52;50235.91;;;-136.69;63.23
21879;BME280;27908;42.708;23.278;2023-08-06T07:23:22;50245.75;;;-136.69;63.12
21879;BME280;27908;42.708;23.278;2023-08-06T07:25:48;50275.28;;;-136.69;65.16
21879;BME280;27908;42.708;23.278;2023-08-06T07:28:14;50293.00;;;-136.69;62.83
21879;BME280;27908;42.708;23.278;2023-08-06T07:30:43;50267.41;;;-136.69;65.63
21879;BME280;27908;42.708;23.278;2023-08-06T07:33:09;50289.06;;;-136.69;63.67
21879;BME280;27908;42.708;23.278;2023-08-06T07:35:35;50322.56;;;-136.69;61.54
21879;BME280;27908;42.708;23.278;2023-08-06T07:38:01;50332.41;;;-136.69;59.65
21879;BME280;27908;42.708;23.278;2023-08-06T07:40:27;50348.16;;;-136.69;58.99
21879;BME280;27908;42.708;23.278;2023-08-06T07:42:52;50289.06;;;-136.69;60.87
21879;BME280;27908;42.708;23.278;2023-08-06T07:45:18;50340.28;;;-136.69;59.26
21879;BME280;27908;42.708;23.278;2023-08-06T07:47:43;50316.66;;;-136.69;59.97
21879;BME280;27908;42.708;23.278;2023-08-06T07:50:09;50330.44;;;-136.69;60.65
21879;BME280;27908;42.708;23.278;2023-08-06T07:52:35;50330.44;;;-136.69;62.65
21879;BME280;27908;42.708;23.278;2023-08-06T07:55:01;50356.03;;;-136.69;57.91
21879;BME280;27908;42.708;23.278;2023-08-06T07:57:30;50373.75;;;-136.69;59.70
21879;BME280;27908;42.708;23.278;2023-08-06T07:59:56;50377.69;;;-136.69;58.04
21879;BME280;27908;42.708;23.278;2023-08-06T08:02:21;50401.31;;;-136.69;57.88
21879;BME280;27908;42.708;23.278;2023-08-06T08:04:47;50419.03;;;-136.69;54.53
21879;BME280;27908;42.708;23.278;2023-08-06T08:07:13;50389.50;;;-136.69;56.11
21879;BME280;27908;42.708;23.278;2023-08-06T08:09:38;50401.31;;;-136.69;58.52
21879;BME280;27908;42.708;23.278;2023-08-06T08:12:04;50415.09;;;-136.69;57.67
21879;BME280;27908;42.708;23.278;2023-08-06T08:14:30;50426.91;;;-136.69;56.82
21879;BME280;27908;42.708;23.278;2023-08-06T08:17:01;50413.13;;;-136.69;56.02
21879;BME280;27908;42.708;23.278;2023-08-06T08:19:26;50395.41;;;-136.69;56.04
21879;BME280;27908;42.708;23.278;2023-08-06T08:21:51;50375.72;;;-136.69;54.28
21879;BME280;27908;42.708;23.278;2023-08-06T08:24:17;50401.31;;;-136.69;54.75
21879;BME280;27908;42.708;23.278;2023-08-06T08:26:45;50399.34;;;-136.69;57.72
21879;BME280;27908;42.708;23.278;2023-08-06T08:29:10;50379.66;;;-136.69;54.48
21879;BME280;27908;42.708;23.278;2023-08-06T08:31:35;50383.59;;;-136.69;54.81
21879;BME280;27908;42.708;23.278;2023-08-06T08:34:04;50438.72;;;-136.69;52.78
21879;BME280;27908;42.708;23.278;2023-08-06T08:36:30;50438.72;;;-136.69;53.60
21879;BME280;27908;42.708;23.278;2023-08-06T08:38:56;50432.81;;;-136.69;52.74
21879;BME280;27908;42.708;23.278;2023-08-06T08:41:21;50421.00;;;-136.69;52.81
21879;BME280;27908;42.708;23.278;2023-08-06T08:43:49;50454.50;;;-136.69;51.87
21879;BME280;27908;42.708;23.278;2023-08-06T08:46:15;50499.78;;;-136.69;54.02
21879;BME280;27908;42.708;23.278;2023-08-06T08:48:42;50476.16;;;-136.69;50.34
21879;BME280;27908;42.708;23.278;2023-08-06T08:51:10;50472.22;;;-136.69;52.23
21879;BME280;27908;42.708;23.278;2023-08-06T08:53:37;50487.97;;;-136.69;51.36
21879;BME280;27908;42.708;23.278;2023-08-06T08:56:05;50491.91;;;-136.69;51.19
21879;BME280;27908;42.708;23.278;2023-08-06T08:58:31;50493.88;;;-136.69;51.36
21879;BME280;27908;42.708;23.278;2023-08-06T09:00:57;50509.63;;;-136.69;51.94
21879;BME280;27908;42.708;23.278;2023-08-06T09:03:23;50491.91;;;-136.69;51.09
21879;BME280;27908;42.708;23.278;2023-08-06T09:05:51;50482.06;;;-136.69;50.62
21879;BME280;27908;42.708;23.278;2023-08-06T09:08:21;50517.50;;;-136.69;50.52
21879;BME280;27908;42.708;23.278;2023-08-06T09:10:49;50549.00;;;-136.69;50.24
21879;BME280;27908;42.708;23.278;2023-08-06T09:13:16;50550.97;;;-136.69;50.64
21879;BME280;27908;42.708;23.278;2023-08-06T09:15:41;50535.22;;;-136.69;48.55
21879;BME280;27908;42.708;23.278;2023-08-06T09:18:10;50610.06;;;-136.69;49.38
21879;BME280;27908;42.708;23.278;2023-08-06T09:20:38;50572.66;;;-136.69;46.90
21879;BME280;27908;42.708;23.278;2023-08-06T09:23:07;50576.59;;;-136.69;47.54
21879;BME280;27908;42.708;23.278;2023-08-06T09:25:34;50580.53;;;-136.69;45.24
21879;BME280;27908;42.708;23.278;2023-08-06T09:28:02;50619.91;;;-136.69;45.34
21879;BME280;27908;42.708;23.278;2023-08-06T09:30:29;50627.78;;;-136.69;45.24
21879;BME280;27908;42.708;23.278;2023-08-06T09:32:56;50625.81;;;-136.69;44.81
21879;BME280;27908;42.708;23.278;2023-08-06T09:35:21;50659.28;;;-136.69;45.02
21879;BME280;27908;42.708;23.278;2023-08-06T09:37:47;50653.38;;;-136.69;44.25
21879;BME280;27908;42.708;23.278;2023-08-06T09:40:28;50653.38;;;-136.69;43.98
21879;BME280;27908;42.708;23.278;2023-08-06T09:42:54;50665.19;;;-136.69;42.50
21879;BME280;27908;42.708;23.278;2023-08-06T09:45:20;50649.44;;;-136.69;41.02
21879;BME280;27908;42.708;23.278;2023-08-06T09:47:50;50621.88;;;-136.69;41.14
21879;BME280;27908;42.708;23.278;2023-08-06T09:50:19;50584.47;;;-136.69;42.94
21879;BME280;27908;42.708;23.278;2023-08-06T09:52:47;50631.72;;;-136.69;41.16
21879;BME280;27908;42.708;23.278;2023-08-06T09:55:14;50629.75;;;-136.69;39.31
21879;BME280;27908;42.708;23.278;2023-08-06T09:57:41;50671.09;;;-136.69;38.74
21879;BME280;27908;42.708;23.278;2023-08-06T10:00:08;50708.53;;;-136.69;38.56
21879;BME280;27908;42.708;23.278;2023-08-06T10:02:35;50734.13;;;-136.69;39.15
21879;BME280;27908;42.708;23.278;2023-08-06T10:05:02;50742.00;;;-136.69;38.05
21879;BME280;27908;42.708;23.278;2023-08-06T10:07:29;50783.38;;;-136.69;38.42
21879;BME280;27908;42.708;23.278;2023-08-06T10:09:55;50860.16;;;-136.69;39.02
21879;BME280;27908;42.708;23.278;2023-08-06T10:12:21;50915.31;;;-136.69;36.07
21879;BME280;27908;42.708;23.278;2023-08-06T10:14:48;51007.88;;;-136.69;36.46
21879;BME280;27908;42.708;23.278;2023-08-06T10:17:15;50931.06;;;-136.69;35.74
21879;BME280;27908;42.708;23.278;2023-08-06T10:19:41;50942.88;;;-136.69;37.26
21879;BME280;27908;42.708;23.278;2023-08-06T10:24:52;50840.47;;;-136.69;38.45
21879;BME280;27908;42.708;23.278;2023-08-06T10:32:56;50803.06;;;-136.69;38.30
21879;BME280;27908;42.708;23.278;2023-08-06T10:35:34;50868.03;;;-136.69;37.76
21879;BME280;27908;42.708;23.278;2023-08-06T10:40:40;50862.13;;;-136.69;38.32
21879;BME280;27908;42.708;23.278;2023-08-06T10:43:06;50842.44;;;-136.69;37.46
21879;BME280;27908;42.708;23.278;2023-08-06T10:45:36;50852.28;;;-136.69;37.61
21879;BME280;27908;42.708;23.278;2023-08-06T10:48:02;50850.31;;;-136.69;38.86
21879;BME280;27908;42.708;23.278;2023-08-06T10:50:28;50745.94;;;-136.69;38.25
21879;BME280;27908;42.708;23.278;2023-08-06T10:52:54;50751.84;;;-136.69;39.19
21879;BME280;27908;42.708;23.278;2023-08-06T10:55:28;50777.44;;;-136.69;38.02
21879;BME280;27908;42.708;23.278;2023-08-06T10:57:54;50722.31;;;-136.69;38.35
21879;BME280;27908;42.708;23.278;2023-08-06T11:00:21;50742.00;;;-136.69;39.08
21879;BME280;27908;42.708;23.278;2023-08-06T11:02:48;50795.19;;;-136.69;37.38
21879;BME280;27908;42.708;23.278;2023-08-06T11:05:14;50726.25;;;-136.69;38.82
21879;BME280;27908;42.708;23.278;2023-08-06T11:07:40;50659.28;;;-136.69;41.75
21879;BME280;27908;42.708;23.278;2023-08-06T11:10:10;50570.69;;;-136.69;44.43
21879;BME280;27908;42.708;23.278;2023-08-06T11:12:36;50604.16;;;-136.69;43.77
21879;BME280;27908;42.708;23.278;2023-08-06T11:15:02;50702.63;;;-136.69;44.65
21879;BME280;27908;42.708;23.278;2023-08-06T11:17:29;50629.75;;;-136.69;44.23
21879;BME280;27908;42.708;23.278;2023-08-06T11:19:55;50614.00;;;-136.69;43.69
21879;BME280;27908;42.708;23.278;2023-08-06T11:22:21;50586.44;;;-136.69;44.23
21879;BME280;27908;42.708;23.278;2023-08-06T11:24:48;50580.53;;;-136.69;42.24
21879;BME280;27908;42.708;23.278;2023-08-06T11:27:15;50576.59;;;-136.69;42.94
21879;BME280;27908;42.708;23.278;2023-08-06T11:29:41;50629.75;;;-136.69;43.00
21879;BME280;27908;42.708;23.278;2023-08-06T11:32:07;50637.63;;;-136.69;42.06
21879;BME280;27908;42.708;23.278;2023-08-06T11:34:33;50712.47;;;-136.69;41.09
21879;BME280;27908;42.708;23.278;2023-08-06T11:36:58;50749.88;;;-136.69;39.20
21879;BME280;27908;42.708;23.278;2023-08-06T11:39:24;50749.88;;;-136.69;39.75
21879;BME280;27908;42.708;23.278;2023-08-06T11:41:50;50801.09;;;-136.69;38.60
21879;BME280;27908;42.708;23.278;2023-08-06T11:44:18;50799.13;;;-136.69;37.51
21879;BME280;27908;42.708;23.278;2023-08-06T11:46:54;50793.22;;;-136.69;38.15
21879;BME280;27908;42.708;23.278;2023-08-06T11:49:48;50793.22;;;-136.69;37.21
21879;BME280;27908;42.708;23.278;2023-08-06T11:52:17;50787.31;;;-136.69;37.07
21879;BME280;27908;42.708;23.278;2023-08-06T11:54:45;50789.28;;;-136.69;37.41
21879;BME280;27908;42.708;23.278;2023-08-06T11:57:11;50844.41;;;-136.69;38.71
21879;BME280;27908;42.708;23.278;2023-08-06T11:59:40;50938.94;;;-136.69;36.02
21879;BME280;27908;42.708;23.278;2023-08-06T12:02:09;50948.78;;;-136.69;34.42
21879;BME280;27908;42.708;23.278;2023-08-06T12:05:04;50964.56;;;-136.69;35.47
21879;BME280;27908;42.708;23.278;2023-08-06T12:07:31;51015.75;;;-136.69;34.22
21879;BME280;27908;42.708;23.278;2023-08-06T12:09:58;51100.44;;;-136.69;33.18
21879;BME280;27908;42.708;23.278;2023-08-06T12:12:24;51112.25;;;-136.69;32.63
21879;BME280;27908;42.708;23.278;2023-08-06T12:14:50;51063.03;;;-136.69;32.33
21879;BME280;27908;42.708;23.278;2023-08-06T12:17:15;51009.84;;;-136.69;33.99
21879;BME280;27908;42.708;23.278;2023-08-06T12:19:41;50994.09;;;-136.69;34.70
21879;BME280;27908;42.708;23.278;2023-08-06T12:22:06;50982.28;;;-136.69;33.97
21879;BME280;27908;42.708;23.278;2023-08-06T12:24:32;50899.56;;;-136.69;34.91
21879;BME280;27908;42.708;23.278;2023-08-06T12:26:58;50944.84;;;-136.69;34.66
21879;BME280;27908;42.708;23.278;2023-08-06T12:29:25;50954.69;;;-136.69;33.61
21879;BME280;27908;42.708;23.278;2023-08-06T12:31:51;50950.75;;;-136.69;33.75
21879;BME280;27908;42.708;23.278;2023-08-06T12:34:16;50976.38;;;-136.69;33.60
21879;BME280;27908;42.708;23.278;2023-08-06T12:36:42;50940.91;;;-136.69;33.63
21879;BME280;27908;42.708;23.278;2023-08-06T12:39:07;50944.84;;;-136.69;34.35
21879;BME280;27908;42.708;23.278;2023-08-06T12:41:32;50933.03;;;-136.69;34.29
21879;BME280;27908;42.708;23.278;2023-08-06T12:43:58;50891.69;;;-136.69;34.15
21879;BME280;27908;42.708;23.278;2023-08-06T12:46:23;50875.94;;;-136.69;34.71